Time;durP1;ratioP1;P1;durP2;ratioP2;P2;SDS_P1;SDS_P2;PMS_P1;PMS_P2;Temp;Humidity;BMP_temperature;BMP_pressure;BME280_temperature;BME280_humidity;BME280_pressure;Samples;Min_cycle;Max_cycle;Signal;HPM_P1;HPM_P2
2022/11/07 00:02:06;;;;;;;11.52;7.07;;;;;;;;;;5014793;28;20045;-79
2022/11/07 00:04:32;;;;;;;18.73;9.25;;;;;;;;;;5017999;28;20037;-79
2022/11/07 00:06:58;;;;;;;9.52;7.03;;;;;;;;;;4984960;28;20459;-79
2022/11/07 00:09:25;;;;;;;10.20;7.05;;;;;;;;;;5010952;28;20147;-79
2022/11/07 00:11:51;;;;;;;19.13;9.05;;;;;;;;;;5014354;28;20599;-80
2022/11/07 00:14:17;;;;;;;13.35;7.30;;;;;;;;;;5006374;28;20721;-80
2022/11/07 00:16:43;;;;;;;13.68;7.85;;;;;;;;;;5009086;28;21658;-77
2022/11/07 00:19:10;;;;;;;13.70;7.57;;;;;;;;;;5011099;28;20049;-78
2022/11/07 00:21:37;;;;;;;10.63;7.13;;;;;;;;;;5014763;28;20412;-78
2022/11/07 00:24:03;;;;;;;15.55;7.72;;;;;;;;;;5000292;28;20107;-78
2022/11/07 00:26:29;;;;;;;14.13;7.55;;;;;;;;;;5008004;28;20499;-78
2022/11/07 00:28:55;;;;;;;14.38;7.80;;;;;;;;;;5005641;28;20082;-78
2022/11/07 00:31:21;;;;;;;12.07;6.93;;;;;;;;;;5009552;28;20508;-77
2022/11/07 00:33:48;;;;;;;11.38;7.90;;;;;;;;;;5007991;28;20184;-79
2022/11/07 00:36:18;;;;;;;12.32;7.10;;;;;;;;;;5031480;28;20140;-78
2022/11/07 00:38:44;;;;;;;27.05;7.32;;;;;;;;;;5002536;28;20149;-78
2022/11/07 00:41:10;;;;;;;9.30;7.28;;;;;;;;;;5000174;28;20526;-78
2022/11/07 00:43:36;;;;;;;10.75;7.22;;;;;;;;;;5015163;28;20041;-78
2022/11/07 00:46:03;;;;;;;11.75;7.82;;;;;;;;;;5009219;28;20061;-78
2022/11/07 00:48:30;;;;;;;12.50;6.60;;;;;;;;;;5014912;28;21376;-79
2022/11/07 00:50:56;;;;;;;9.65;6.43;;;;;;;;;;5001757;28;20045;-78
2022/11/07 00:53:22;;;;;;;10.52;6.15;;;;;;;;;;5016717;28;20049;-78
2022/11/07 00:55:49;;;;;;;9.52;5.95;;;;;;;;;;4999500;28;20052;-78
2022/11/07 00:58:16;;;;;;;11.48;7.25;;;;;;;;;;5003972;28;20052;-79
2022/11/07 01:00:42;;;;;;;14.63;7.70;;;;;;;;;;5034277;28;20045;-79
2022/11/07 01:06:01;;;;;;;16.50;7.38;;;;;;;;;;5048627;28;20041;-78
2022/11/07 01:08:27;;;;;;;9.27;5.97;;;;;;;;;;5042659;28;20037;-79
2022/11/07 01:10:53;;;;;;;10.13;6.45;;;;;;;;;;5047343;28;20044;-79
2022/11/07 01:13:19;;;;;;;14.70;6.72;;;;;;;;;;5022915;28;20045;-79
2022/11/07 01:15:45;;;;;;;15.20;6.85;;;;;;;;;;5037127;28;20068;-79
2022/11/07 01:18:11;;;;;;;8.88;6.22;;;;;;;;;;5032602;28;20041;-78
2022/11/07 01:20:38;;;;;;;12.98;6.53;;;;;;;;;;5022372;28;21581;-78
2022/11/07 01:23:04;;;;;;;10.82;5.93;;;;;;;;;;5016166;28;20106;-78
2022/11/07 01:25:30;;;;;;;11.98;6.28;;;;;;;;;;5007959;28;20045;-78
2022/11/07 01:27:56;;;;;;;15.50;7.07;;;;;;;;;;5013105;28;20167;-78
2022/11/07 01:30:22;;;;;;;16.85;6.80;;;;;;;;;;5014790;28;20089;-78
2022/11/07 01:32:48;;;;;;;15.93;6.30;;;;;;;;;;5011066;28;20147;-79
2022/11/07 01:35:15;;;;;;;10.75;5.07;;;;;;;;;;5013320;28;20049;-79
2022/11/07 01:37:41;;;;;;;11.35;6.70;;;;;;;;;;5002907;28;20048;-78
2022/11/07 01:40:07;;;;;;;13.80;7.88;;;;;;;;;;5015125;28;20045;-80
2022/11/07 01:42:33;;;;;;;9.05;6.18;;;;;;;;;;5016566;28;20361;-80
2022/11/07 01:45:00;;;;;;;17.60;7.75;;;;;;;;;;5015010;28;20033;-81
2022/11/07 01:47:31;;;;;;;12.77;7.45;;;;;;;;;;5019458;28;20634;-81
2022/11/07 01:49:58;;;;;;;14.85;7.35;;;;;;;;;;4999818;28;20087;-81
2022/11/07 01:52:34;;;;;;;10.27;5.57;;;;;;;;;;5010398;28;20052;-82
2022/11/07 01:55:19;;;;;;;11.40;6.28;;;;;;;;;;5015135;28;20129;-81
2022/11/07 01:57:51;;;;;;;24.90;7.13;;;;;;;;;;5017018;28;20485;-81
2022/11/07 02:00:19;;;;;;;17.77;8.25;;;;;;;;;;5017595;28;20493;-81
2022/11/07 02:02:47;;;;;;;13.52;6.00;;;;;;;;;;5018617;28;20040;-81
2022/11/07 02:05:21;;;;;;;15.20;5.70;;;;;;;;;;5017823;28;20075;-81
2022/11/07 02:07:47;;;;;;;9.32;5.25;;;;;;;;;;5036329;28;20661;-81
2022/11/07 02:10:13;;;;;;;12.25;6.03;;;;;;;;;;5022080;28;20049;-82
2022/11/07 02:12:40;;;;;;;17.95;6.57;;;;;;;;;;5017585;28;20915;-82
2022/11/07 02:15:07;;;;;;;14.80;7.22;;;;;;;;;;5026046;28;20048;-81
2022/11/07 02:17:34;;;;;;;18.83;5.82;;;;;;;;;;5046223;28;20037;-81
2022/11/07 02:20:00;;;;;;;20.70;5.55;;;;;;;;;;5026439;28;20049;-81
2022/11/07 02:22:32;;;;;;;18.98;6.82;;;;;;;;;;5003042;28;20059;-81
2022/11/07 02:25:00;;;;;;;11.90;4.78;;;;;;;;;;5022813;28;20045;-81
2022/11/07 02:27:28;;;;;;;12.60;5.65;;;;;;;;;;5019920;28;20045;-81
2022/11/07 02:29:57;;;;;;;10.65;5.32;;;;;;;;;;5019747;28;20455;-81
2022/11/07 02:32:23;;;;;;;8.45;4.80;;;;;;;;;;5013738;28;20048;-81
2022/11/07 02:35:02;;;;;;;16.73;4.80;;;;;;;;;;5011345;28;20041;-81
2022/11/07 02:37:38;;;;;;;12.95;5.28;;;;;;;;;;4999222;28;20052;-81
2022/11/07 02:40:05;;;;;;;10.93;5.40;;;;;;;;;;4994497;28;20041;-81
2022/11/07 02:42:44;;;;;;;37.33;9.02;;;;;;;;;;5017575;28;20124;-81
2022/11/07 02:45:16;;;;;;;8.45;5.22;;;;;;;;;;5033428;28;20047;-80
2022/11/07 02:47:42;;;;;;;16.75;6.22;;;;;;;;;;5046676;28;20040;-81
2022/11/07 02:50:09;;;;;;;14.30;5.13;;;;;;;;;;5045215;28;20055;-80
2022/11/07 02:52:36;;;;;;;13.38;4.68;;;;;;;;;;5021730;28;20485;-80
2022/11/07 02:55:02;;;;;;;12.02;4.68;;;;;;;;;;5056748;28;20171;-81
2022/11/07 02:57:28;;;;;;;15.00;4.57;;;;;;;;;;5051162;28;20091;-80
2022/11/07 02:59:56;;;;;;;18.33;5.20;;;;;;;;;;5037365;28;20041;-80
2022/11/07 03:02:23;;;;;;;8.18;4.68;;;;;;;;;;5046529;28;20052;-80
2022/11/07 03:04:49;;;;;;;10.65;4.22;;;;;;;;;;5003337;28;20106;-82
2022/11/07 03:07:15;;;;;;;12.95;4.60;;;;;;;;;;5034252;28;20044;-81
2022/11/07 03:09:41;;;;;;;18.67;6.10;;;;;;;;;;5000216;28;20071;-80
2022/11/07 03:12:07;;;;;;;16.15;5.78;;;;;;;;;;5018383;28;20059;-80
2022/11/07 03:14:33;;;;;;;11.98;5.05;;;;;;;;;;5029742;28;20041;-81
2022/11/07 03:16:59;;;;;;;10.75;4.22;;;;;;;;;;5009699;28;20056;-81
2022/11/07 03:19:25;;;;;;;15.70;4.93;;;;;;;;;;5010827;28;20033;-81
2022/11/07 03:21:52;;;;;;;13.38;4.95;;;;;;;;;;5020321;28;20057;-81
2022/11/07 03:24:18;;;;;;;13.82;5.45;;;;;;;;;;4995514;28;22617;-81
2022/11/07 03:26:44;;;;;;;10.23;3.83;;;;;;;;;;4988654;28;20041;-83
2022/11/07 03:29:10;;;;;;;15.38;5.20;;;;;;;;;;4991022;28;20049;-81
2022/11/07 03:31:36;;;;;;;11.98;3.80;;;;;;;;;;4966840;28;20037;-82
2022/11/07 03:34:02;;;;;;;14.65;4.65;;;;;;;;;;4992598;28;20056;-82
2022/11/07 03:36:29;;;;;;;11.85;4.07;;;;;;;;;;4991145;28;20052;-82
2022/11/07 03:38:55;;;;;;;6.45;3.00;;;;;;;;;;4987235;28;20481;-83
2022/11/07 03:41:21;;;;;;;13.68;4.00;;;;;;;;;;4989793;28;20850;-82
2022/11/07 03:43:47;;;;;;;9.80;3.90;;;;;;;;;;4992128;28;20052;-82
2022/11/07 03:46:14;;;;;;;14.45;4.88;;;;;;;;;;4991618;28;20055;-81
2022/11/07 03:48:40;;;;;;;15.60;4.78;;;;;;;;;;4992157;28;20037;-79
2022/11/07 03:51:07;;;;;;;17.25;5.32;;;;;;;;;;4997303;28;20120;-84
2022/11/07 03:53:34;;;;;;;18.00;5.93;;;;;;;;;;5007530;28;20061;-82
2022/11/07 03:56:00;;;;;;;19.33;6.70;;;;;;;;;;5000165;28;20466;-81
2022/11/07 03:58:26;;;;;;;14.30;6.72;;;;;;;;;;4995119;28;20041;-79
2022/11/07 04:00:52;;;;;;;22.55;8.40;;;;;;;;;;4988745;28;20501;-79
2022/11/07 04:03:18;;;;;;;27.23;8.07;;;;;;;;;;5006317;28;20041;-77
2022/11/07 04:05:44;;;;;;;19.65;8.23;;;;;;;;;;4970863;28;20046;-78
2022/11/07 04:08:10;;;;;;;21.38;8.25;;;;;;;;;;4970054;28;20095;-78
2022/11/07 04:10:36;;;;;;;19.23;7.18;;;;;;;;;;4990618;28;20073;-79
2022/11/07 04:18:33;;;;;;;16.80;6.75;;;;;;;;;;5003223;28;20433;-78
2022/11/07 04:20:59;;;;;;;15.75;6.38;;;;;;;;;;5007791;28;20041;-77
2022/11/07 04:23:25;;;;;;;15.98;5.40;;;;;;;;;;4991223;28;20064;-78
2022/11/07 04:28:35;;;;;;;18.35;6.47;;;;;;;;;;5020881;28;20041;-77
2022/11/07 04:31:02;;;;;;;18.20;5.70;;;;;;;;;;5024775;28;20114;-76
2022/11/07 04:33:28;;;;;;;21.70;6.03;;;;;;;;;;5041882;28;20041;-73
2022/11/07 04:35:54;;;;;;;10.95;5.80;;;;;;;;;;5042246;28;20045;-75
2022/11/07 04:38:20;;;;;;;16.92;6.28;;;;;;;;;;5041112;28;20048;-76
2022/11/07 04:40:52;;;;;;;18.10;6.20;;;;;;;;;;5021100;28;20045;-76
2022/11/07 04:43:18;;;;;;;20.55;5.93;;;;;;;;;;5013950;28;20052;-77
2022/11/07 04:45:45;;;;;;;17.42;6.05;;;;;;;;;;5013438;28;20049;-77
2022/11/07 04:48:11;;;;;;;13.70;5.50;;;;;;;;;;5010557;28;20046;-77
2022/11/07 04:50:38;;;;;;;12.98;4.95;;;;;;;;;;4996077;28;20045;-76
2022/11/07 04:53:04;;;;;;;16.00;6.13;;;;;;;;;;5011898;28;20558;-77
2022/11/07 04:55:30;;;;;;;14.55;5.30;;;;;;;;;;5010646;28;20064;-77
2022/11/07 04:57:57;;;;;;;17.48;6.15;;;;;;;;;;5014777;28;20046;-77
2022/11/07 05:00:23;;;;;;;12.30;5.95;;;;;;;;;;5001982;28;20128;-78
2022/11/07 05:02:50;;;;;;;18.70;6.18;;;;;;;;;;5002094;28;20045;-77
2022/11/07 05:05:17;;;;;;;20.35;7.95;;;;;;;;;;5008954;28;20163;-77
2022/11/07 05:07:43;;;;;;;22.17;6.35;;;;;;;;;;5008890;28;20442;-77
2022/11/07 05:10:20;;;;;;;15.05;5.82;;;;;;;;;;5009686;28;20134;-78
2022/11/07 05:12:46;;;;;;;21.70;7.78;;;;;;;;;;5010710;28;20037;-79
2022/11/07 05:15:13;;;;;;;24.73;6.55;;;;;;;;;;5010181;28;20045;-83
2022/11/07 05:17:39;;;;;;;22.98;7.00;;;;;;;;;;5013421;28;20071;-82
2022/11/07 05:20:05;;;;;;;27.42;9.13;;;;;;;;;;4989009;28;20045;-80
2022/11/07 05:25:16;;;;;;;24.67;7.68;;;;;;;;;;4995556;28;21618;-79
2022/11/07 05:27:43;;;;;;;19.23;6.05;;;;;;;;;;4969319;28;20490;-78
2022/11/07 05:30:12;;;;;;;18.05;7.65;;;;;;;;;;4975743;28;20098;-79
2022/11/07 05:32:40;;;;;;;27.42;7.82;;;;;;;;;;4995499;28;20076;-79
2022/11/07 05:35:06;;;;;;;18.83;6.65;;;;;;;;;;4995233;28;20049;-79
2022/11/07 05:37:32;;;;;;;35.22;9.65;;;;;;;;;;4990992;28;20084;-78
2022/11/07 05:39:58;;;;;;;24.10;9.77;;;;;;;;;;4992825;28;20053;-77
2022/11/07 05:42:24;;;;;;;23.58;7.20;;;;;;;;;;4990988;28;20102;-77
2022/11/07 05:44:50;;;;;;;24.08;9.77;;;;;;;;;;5010825;28;20045;-76
2022/11/07 05:47:16;;;;;;;20.15;9.23;;;;;;;;;;4989621;28;20052;-77
2022/11/07 05:49:42;;;;;;;22.17;8.88;;;;;;;;;;5005604;28;20132;-76
2022/11/07 05:52:08;;;;;;;20.50;8.23;;;;;;;;;;4969044;28;20159;-76
2022/11/07 05:54:34;;;;;;;22.30;8.68;;;;;;;;;;4965710;28;20033;-76
2022/11/07 05:57:00;;;;;;;13.55;7.35;;;;;;;;;;4991421;28;20045;-76
2022/11/07 05:59:26;;;;;;;19.73;8.00;;;;;;;;;;4966279;28;20077;-76
2022/11/07 06:01:52;;;;;;;25.40;8.77;;;;;;;;;;5003248;28;20033;-76
2022/11/07 06:04:19;;;;;;;27.15;8.48;;;;;;;;;;5012872;28;20037;-79
2022/11/07 06:06:45;;;;;;;19.88;7.35;;;;;;;;;;5002922;28;20064;-79
2022/11/07 06:09:11;;;;;;;17.05;8.13;;;;;;;;;;5027605;28;20036;-79
2022/11/07 06:11:37;;;;;;;19.20;7.88;;;;;;;;;;5013345;28;20128;-79
2022/11/07 06:14:03;;;;;;;23.48;8.82;;;;;;;;;;5004594;28;20530;-78
2022/11/07 06:16:29;;;;;;;16.58;7.95;;;;;;;;;;5005685;28;20458;-79
2022/11/07 06:18:55;;;;;;;16.48;8.02;;;;;;;;;;5016080;28;20579;-78
2022/11/07 06:21:21;;;;;;;18.80;8.10;;;;;;;;;;5011822;28;20489;-79
2022/11/07 06:23:47;;;;;;;24.98;8.60;;;;;;;;;;5004301;28;20465;-78
2022/11/07 06:26:13;;;;;;;18.42;9.60;;;;;;;;;;5016318;28;21595;-78
2022/11/07 06:28:39;;;;;;;23.98;10.52;;;;;;;;;;5013370;28;20136;-79
2022/11/07 06:31:06;;;;;;;15.48;7.70;;;;;;;;;;5000556;28;20044;-79
2022/11/07 06:33:32;;;;;;;20.85;8.23;;;;;;;;;;5013168;28;21391;-79
2022/11/07 06:36:09;;;;;;;23.48;11.30;;;;;;;;;;5015399;28;20052;-79
2022/11/07 06:38:36;;;;;;;24.83;11.57;;;;;;;;;;5018184;28;20064;-79
2022/11/07 06:41:13;;;;;;;16.67;9.23;;;;;;;;;;4996735;28;20045;-78
2022/11/07 06:43:39;;;;;;;19.05;8.82;;;;;;;;;;5029596;28;20128;-77
2022/11/07 06:46:07;;;;;;;19.50;8.52;;;;;;;;;;5034048;28;20033;-77
2022/11/07 06:48:33;;;;;;;11.40;8.50;;;;;;;;;;5011424;28;20080;-78
2022/11/07 06:51:00;;;;;;;28.85;10.52;;;;;;;;;;5019376;28;20094;-77
2022/11/07 06:53:26;;;;;;;20.23;9.88;;;;;;;;;;5012667;28;20055;-77
2022/11/07 06:55:52;;;;;;;21.15;9.20;;;;;;;;;;4994304;28;20047;-75
2022/11/07 06:58:18;;;;;;;19.20;8.95;;;;;;;;;;5018896;28;20090;-75
2022/11/07 07:00:44;;;;;;;22.95;10.70;;;;;;;;;;5030182;28;20056;-75
2022/11/07 07:03:11;;;;;;;14.02;10.25;;;;;;;;;;5010537;28;20036;-76
2022/11/07 07:05:37;;;;;;;12.52;7.60;;;;;;;;;;5012864;28;20041;-76
2022/11/07 07:08:05;;;;;;;17.98;9.55;;;;;;;;;;5011336;28;20146;-71
2022/11/07 07:10:33;;;;;;;22.80;9.52;;;;;;;;;;4981441;28;20044;-71
2022/11/07 07:12:59;;;;;;;18.05;8.93;;;;;;;;;;4994455;28;20053;-72
2022/11/07 07:15:26;;;;;;;12.18;6.50;;;;;;;;;;5012933;28;20314;-71
2022/11/07 07:17:52;;;;;;;16.25;7.75;;;;;;;;;;5026556;28;20048;-72
2022/11/07 07:20:18;;;;;;;18.13;7.30;;;;;;;;;;5028295;28;20072;-71
2022/11/07 07:22:45;;;;;;;15.27;6.85;;;;;;;;;;4967673;28;20123;-71
2022/11/07 07:25:11;;;;;;;14.55;7.45;;;;;;;;;;5009257;28;20296;-71
2022/11/07 07:27:37;;;;;;;14.05;6.15;;;;;;;;;;4997298;28;20455;-71
2022/11/07 07:30:03;;;;;;;12.55;5.72;;;;;;;;;;5014525;28;20041;-71
2022/11/07 07:32:29;;;;;;;13.20;6.15;;;;;;;;;;5015427;28;20053;-71
2022/11/07 07:34:55;;;;;;;12.70;6.47;;;;;;;;;;5015670;28;20389;-72
2022/11/07 07:37:21;;;;;;;16.25;6.07;;;;;;;;;;5015573;28;20151;-71
2022/11/07 07:39:47;;;;;;;15.05;6.78;;;;;;;;;;5013438;28;20037;-78
2022/11/07 07:42:15;;;;;;;10.50;5.03;;;;;;;;;;5017489;28;20037;-76
2022/11/07 07:44:41;;;;;;;13.80;5.22;;;;;;;;;;5013614;28;20442;-77
2022/11/07 07:47:08;;;;;;;12.50;6.47;;;;;;;;;;5017500;28;20045;-77
2022/11/07 07:49:34;;;;;;;15.13;7.30;;;;;;;;;;5029664;28;20041;-77
2022/11/07 07:52:00;;;;;;;16.77;7.53;;;;;;;;;;5019849;28;20141;-77
2022/11/07 07:54:26;;;;;;;15.82;6.25;;;;;;;;;;5027967;28;20079;-78
2022/11/07 07:56:52;;;;;;;21.23;9.10;;;;;;;;;;5027022;28;20906;-77
2022/11/07 07:59:18;;;;;;;14.20;7.22;;;;;;;;;;5010209;28;20115;-78
2022/11/07 08:01:44;;;;;;;19.88;10.23;;;;;;;;;;5016377;28;20136;-79
2022/11/07 08:04:10;;;;;;;21.40;9.88;;;;;;;;;;5014733;28;20077;-78
2022/11/07 08:06:36;;;;;;;23.42;10.60;;;;;;;;;;5018890;28;20147;-77
2022/11/07 08:09:03;;;;;;;22.40;9.43;;;;;;;;;;5017697;28;20045;-78
2022/11/07 08:11:29;;;;;;;16.80;9.18;;;;;;;;;;5015673;28;20666;-72
2022/11/07 08:13:55;;;;;;;24.00;11.30;;;;;;;;;;5014092;28;21100;-71
2022/11/07 08:16:21;;;;;;;21.77;10.60;;;;;;;;;;4987149;28;20796;-71
2022/11/07 08:18:47;;;;;;;34.22;13.38;;;;;;;;;;4998354;28;21194;-71
2022/11/07 08:21:13;;;;;;;17.50;10.00;;;;;;;;;;5004828;28;20483;-71
2022/11/07 08:23:39;;;;;;;26.60;12.55;;;;;;;;;;5003956;28;20056;-71
2022/11/07 08:26:05;;;;;;;26.00;13.38;;;;;;;;;;5015749;28;20151;-71
2022/11/07 08:28:32;;;;;;;30.23;11.90;;;;;;;;;;4987840;28;20480;-71
2022/11/07 08:31:01;;;;;;;23.45;11.75;;;;;;;;;;5001827;28;20044;-71
2022/11/07 08:33:28;;;;;;;22.75;10.52;;;;;;;;;;5016160;28;20045;-71
2022/11/07 08:35:59;;;;;;;25.13;12.68;;;;;;;;;;5001756;28;20067;-71
2022/11/07 08:38:25;;;;;;;30.83;12.20;;;;;;;;;;5016377;28;20334;-72
2022/11/07 08:40:52;;;;;;;18.05;10.48;;;;;;;;;;5000152;28;20180;-71
2022/11/07 08:43:19;;;;;;;17.15;8.93;;;;;;;;;;5035052;28;20055;-71
2022/11/07 08:45:46;;;;;;;18.67;9.00;;;;;;;;;;5000519;28;20052;-72
2022/11/07 08:48:13;;;;;;;29.23;10.63;;;;;;;;;;5032308;28;20156;-72
2022/11/07 08:50:39;;;;;;;20.50;10.15;;;;;;;;;;5000822;28;20041;-72
2022/11/07 08:53:05;;;;;;;21.13;10.88;;;;;;;;;;5034787;28;20631;-72
2022/11/07 08:55:31;;;;;;;32.95;12.60;;;;;;;;;;5036101;28;20201;-72
2022/11/07 08:57:58;;;;;;;20.58;10.65;;;;;;;;;;5017236;28;20049;-71
2022/11/07 09:00:24;;;;;;;26.13;9.88;;;;;;;;;;5017204;28;20037;-72
2022/11/07 09:02:50;;;;;;;20.13;10.20;;;;;;;;;;5033023;28;20041;-72
2022/11/07 09:05:16;;;;;;;23.17;11.70;;;;;;;;;;5034535;28;20041;-71
2022/11/07 09:07:43;;;;;;;18.27;9.23;;;;;;;;;;5014235;28;20114;-72
2022/11/07 09:10:10;;;;;;;21.98;9.38;;;;;;;;;;5016607;28;20052;-72
2022/11/07 09:12:37;;;;;;;21.50;9.88;;;;;;;;;;5014831;28;20087;-71
2022/11/07 09:15:03;;;;;;;22.05;10.73;;;;;;;;;;5016916;28;21418;-72
2022/11/07 09:17:29;;;;;;;20.70;9.38;;;;;;;;;;5017291;28;20048;-72
2022/11/07 09:19:55;;;;;;;25.67;12.43;;;;;;;;;;5016023;28;20514;-72
2022/11/07 09:22:21;;;;;;;31.77;12.85;;;;;;;;;;5000497;28;20045;-72
2022/11/07 09:24:47;;;;;;;21.65;10.38;;;;;;;;;;5044201;28;20055;-71
2022/11/07 09:27:13;;;;;;;29.88;12.60;;;;;;;;;;5028403;28;20040;-70
2022/11/07 09:29:39;;;;;;;28.73;12.77;;;;;;;;;;5043270;28;20434;-71
2022/11/07 09:32:05;;;;;;;37.53;11.73;;;;;;;;;;5042258;28;20041;-71
2022/11/07 09:34:31;;;;;;;16.83;8.90;;;;;;;;;;5002492;28;20056;-71
2022/11/07 09:36:58;;;;;;;16.63;8.77;;;;;;;;;;5015867;28;20052;-71
2022/11/07 09:39:24;;;;;;;29.77;10.02;;;;;;;;;;5017448;28;20040;-71
2022/11/07 09:42:05;;;;;;;20.58;9.88;;;;;;;;;;5018751;28;20044;-71
2022/11/07 09:44:43;;;;;;;34.75;14.00;;;;;;;;;;5015510;28;20163;-72
2022/11/07 09:47:18;;;;;;;25.45;11.95;;;;;;;;;;5033063;28;20090;-71
2022/11/07 09:49:57;;;;;;;20.48;9.23;;;;;;;;;;5013994;28;20041;-71
2022/11/07 09:52:37;;;;;;;18.55;9.55;;;;;;;;;;4989532;28;20068;-72
2022/11/07 09:55:12;;;;;;;18.67;8.68;;;;;;;;;;5013170;28;20132;-72
2022/11/07 09:57:38;;;;;;;24.25;11.32;;;;;;;;;;5014933;28;21966;-71
2022/11/07 10:00:13;;;;;;;17.67;6.88;;;;;;;;;;4997801;28;20238;-71
2022/11/07 10:02:41;;;;;;;22.65;7.15;;;;;;;;;;4988678;28;21645;-71
2022/11/07 10:05:27;;;;;;;21.20;7.57;;;;;;;;;;5015164;28;20385;-71
2022/11/07 10:08:00;;;;;;;16.90;6.40;;;;;;;;;;5016373;28;20076;-72
2022/11/07 10:10:35;;;;;;;16.58;6.40;;;;;;;;;;5030761;28;20765;-71
2022/11/07 10:13:10;;;;;;;20.05;5.75;;;;;;;;;;4999428;28;20052;-72
2022/11/07 10:15:45;;;;;;;15.13;5.57;;;;;;;;;;5015562;28;20036;-72
2022/11/07 10:18:14;;;;;;;18.55;7.43;;;;;;;;;;5014984;28;20040;-72
2022/11/07 10:20:53;;;;;;;14.88;5.03;;;;;;;;;;5014987;28;20506;-72
2022/11/07 10:23:38;;;;;;;15.55;5.65;;;;;;;;;;5011994;28;20170;-71
2022/11/07 10:26:11;;;;;;;23.30;7.53;;;;;;;;;;5011588;28;20215;-71
2022/11/07 10:28:47;;;;;;;14.13;5.63;;;;;;;;;;5010823;28;20709;-71
2022/11/07 10:31:14;;;;;;;20.15;6.60;;;;;;;;;;5010021;28;20053;-72
2022/11/07 10:33:51;;;;;;;14.10;5.78;;;;;;;;;;5012066;28;20076;-71
2022/11/07 10:36:17;;;;;;;11.43;5.00;;;;;;;;;;5011552;28;20088;-71
2022/11/07 10:38:43;;;;;;;20.63;6.43;;;;;;;;;;5012436;28;20416;-71
2022/11/07 10:41:21;;;;;;;16.17;6.00;;;;;;;;;;5012532;28;20459;-71
2022/11/07 10:43:51;;;;;;;19.98;6.03;;;;;;;;;;5009802;28;20045;-71
2022/11/07 10:46:22;;;;;;;13.98;5.18;;;;;;;;;;5012216;28;22346;-71
2022/11/07 10:48:55;;;;;;;17.95;5.63;;;;;;;;;;5012708;28;20072;-71
2022/11/07 10:51:38;;;;;;;13.93;4.97;;;;;;;;;;5017348;28;20103;-72
2022/11/07 10:54:04;;;;;;;19.33;6.53;;;;;;;;;;5012812;28;20055;-71
2022/11/07 10:56:31;;;;;;;25.63;5.45;;;;;;;;;;5012623;28;20057;-71
2022/11/07 10:58:57;;;;;;;21.40;5.60;;;;;;;;;;5012649;28;20049;-72
2022/11/07 11:01:25;;;;;;;10.00;3.13;;;;;;;;;;5012807;28;20045;-71
2022/11/07 11:03:51;;;;;;;10.68;4.57;;;;;;;;;;5009122;28;20040;-70
2022/11/07 11:06:17;;;;;;;19.27;6.30;;;;;;;;;;4988820;28;20808;-71
2022/11/07 11:08:43;;;;;;;14.18;5.13;;;;;;;;;;4998996;28;20045;-71
2022/11/07 11:11:14;;;;;;;10.70;4.32;;;;;;;;;;5022296;28;20696;-72
2022/11/07 11:13:40;;;;;;;16.73;4.80;;;;;;;;;;5015028;28;20083;-71
2022/11/07 11:16:14;;;;;;;16.38;4.68;;;;;;;;;;5010364;28;20140;-71
2022/11/07 11:19:13;;;;;;;18.77;4.72;;;;;;;;;;5000704;28;20052;-71
2022/11/07 11:21:40;;;;;;;12.52;3.45;;;;;;;;;;4985603;28;20559;-71
2022/11/07 11:24:21;;;;;;;13.30;4.28;;;;;;;;;;5010559;28;20135;-71
2022/11/07 11:26:49;;;;;;;14.50;3.97;;;;;;;;;;5010607;28;20049;-71
2022/11/07 11:29:34;;;;;;;14.00;4.43;;;;;;;;;;4994242;28;20527;-71
2022/11/07 11:32:02;;;;;;;13.18;3.38;;;;;;;;;;5009453;28;20045;-71
2022/11/07 11:34:28;;;;;;;11.13;3.50;;;;;;;;;;5010231;28;20050;-71
2022/11/07 11:37:03;;;;;;;14.23;4.20;;;;;;;;;;5010097;28;20182;-72
2022/11/07 11:39:38;;;;;;;17.27;3.72;;;;;;;;;;4994515;28;20143;-71
2022/11/07 11:42:04;;;;;;;17.50;4.97;;;;;;;;;;5010115;28;20580;-71
2022/11/07 11:44:39;;;;;;;17.65;5.05;;;;;;;;;;5010499;28;20088;-72
2022/11/07 11:47:22;;;;;;;18.10;4.55;;;;;;;;;;4995632;28;20059;-77
2022/11/07 11:49:58;;;;;;;16.13;4.47;;;;;;;;;;5012270;28;20048;-76
2022/11/07 11:52:24;;;;;;;19.70;4.53;;;;;;;;;;5002940;28;20049;-76
2022/11/07 11:54:52;;;;;;;12.15;4.40;;;;;;;;;;5012014;28;20038;-78
2022/11/07 11:57:22;;;;;;;18.15;5.65;;;;;;;;;;5012491;28;20756;-78
2022/11/07 11:59:55;;;;;;;16.58;4.82;;;;;;;;;;5010630;28;20142;-77
2022/11/07 12:02:24;;;;;;;20.27;5.45;;;;;;;;;;5012930;28;20045;-77
2022/11/07 12:05:09;;;;;;;14.80;4.80;;;;;;;;;;5003275;28;20045;-76
2022/11/07 12:07:41;;;;;;;19.83;4.85;;;;;;;;;;5011759;28;20055;-77
2022/11/07 12:10:27;;;;;;;16.23;5.50;;;;;;;;;;5014140;28;20116;-76
2022/11/07 12:12:53;;;;;;;10.18;3.97;;;;;;;;;;4983889;28;20037;-77
2022/11/07 12:15:25;;;;;;;11.45;3.83;;;;;;;;;;5012927;28;20132;-77
2022/11/07 12:17:58;;;;;;;14.70;3.85;;;;;;;;;;5012708;28;20060;-77
2022/11/07 12:20:31;;;;;;;12.97;4.57;;;;;;;;;;5012896;28;20086;-77
2022/11/07 12:22:57;;;;;;;13.88;4.35;;;;;;;;;;5013391;28;20718;-77
2022/11/07 12:25:28;;;;;;;15.43;4.63;;;;;;;;;;4977750;28;20533;-77
2022/11/07 12:28:01;;;;;;;13.43;4.10;;;;;;;;;;5014643;28;20080;-77
2022/11/07 12:30:47;;;;;;;10.02;3.70;;;;;;;;;;4997044;28;20119;-76
2022/11/07 12:33:16;;;;;;;15.60;4.18;;;;;;;;;;5004391;28;20064;-76
2022/11/07 12:36:01;;;;;;;15.15;4.45;;;;;;;;;;5016335;28;20041;-76
2022/11/07 12:38:39;;;;;;;27.98;6.18;;;;;;;;;;5039380;28;20485;-76
2022/11/07 12:41:24;;;;;;;14.70;3.88;;;;;;;;;;5015393;28;20041;-76
2022/11/07 12:44:09;;;;;;;16.63;4.53;;;;;;;;;;4994784;28;20401;-76
2022/11/07 12:46:35;;;;;;;8.93;3.30;;;;;;;;;;5010925;28;20053;-76
2022/11/07 12:49:04;;;;;;;11.80;3.75;;;;;;;;;;5004182;28;20040;-76
2022/11/07 12:51:49;;;;;;;16.55;3.72;;;;;;;;;;5003949;28;20203;-76
2022/11/07 12:54:27;;;;;;;7.45;3.45;;;;;;;;;;5003033;28;20045;-76
2022/11/07 12:56:53;;;;;;;12.23;3.72;;;;;;;;;;5002642;28;20045;-75
2022/11/07 12:59:21;;;;;;;15.32;3.65;;;;;;;;;;5016833;28;20456;-76
2022/11/07 13:01:50;;;;;;;16.33;4.38;;;;;;;;;;5019600;28;20042;-75
2022/11/07 13:04:20;;;;;;;8.27;2.85;;;;;;;;;;4996840;28;20044;-75
2022/11/07 13:06:51;;;;;;;18.77;3.80;;;;;;;;;;4998426;28;20049;-75
2022/11/07 13:09:50;;;;;;;12.25;3.28;;;;;;;;;;5023877;28;20049;-75
2022/11/07 13:12:35;;;;;;;15.77;3.65;;;;;;;;;;4976500;28;20060;-75
2022/11/07 13:15:03;;;;;;;14.85;3.75;;;;;;;;;;5019050;28;20156;-76
2022/11/07 13:17:41;;;;;;;9.00;2.97;;;;;;;;;;5001650;28;20507;-76
2022/11/07 13:20:27;;;;;;;10.35;3.00;;;;;;;;;;4996431;28;20037;-76
2022/11/07 13:22:54;;;;;;;15.63;3.40;;;;;;;;;;5023373;28;20059;-77
2022/11/07 13:25:26;;;;;;;12.77;3.90;;;;;;;;;;5016470;28;20044;-76
2022/11/07 13:27:55;;;;;;;14.13;4.63;;;;;;;;;;4991170;28;20059;-75
2022/11/07 13:30:22;;;;;;;13.15;2.97;;;;;;;;;;4995680;28;20048;-76
2022/11/07 13:32:49;;;;;;;11.73;3.15;;;;;;;;;;4998091;28;20538;-76
2022/11/07 13:35:24;;;;;;;12.25;2.85;;;;;;;;;;5018827;28;20044;-76
2022/11/07 13:37:54;;;;;;;36.75;5.82;;;;;;;;;;5013105;28;20041;-76
2022/11/07 13:40:23;;;;;;;12.88;3.17;;;;;;;;;;5015870;28;21603;-75
2022/11/07 13:42:52;;;;;;;12.75;3.25;;;;;;;;;;4986924;28;21168;-76
2022/11/07 13:45:25;;;;;;;11.93;3.33;;;;;;;;;;5011561;28;20047;-76
2022/11/07 13:47:54;;;;;;;10.57;3.45;;;;;;;;;;5029114;28;20056;-76
2022/11/07 13:50:22;;;;;;;11.77;3.47;;;;;;;;;;5031837;28;20231;-76
2022/11/07 13:52:55;;;;;;;13.07;3.60;;;;;;;;;;4993637;28;20187;-75
2022/11/07 13:55:23;;;;;;;12.23;4.15;;;;;;;;;;5015625;28;20106;-76
2022/11/07 13:58:05;;;;;;;12.55;3.95;;;;;;;;;;5018928;28;20131;-75
2022/11/07 14:00:33;;;;;;;15.07;4.32;;;;;;;;;;5019342;28;20055;-76
2022/11/07 14:02:59;;;;;;;15.60;4.43;;;;;;;;;;5025749;28;20055;-75
2022/11/07 14:05:28;;;;;;;14.80;4.20;;;;;;;;;;5011385;28;20041;-74
2022/11/07 14:08:14;;;;;;;15.73;4.70;;;;;;;;;;5023796;28;20100;-75
2022/11/07 14:10:47;;;;;;;11.43;3.75;;;;;;;;;;5002355;28;20049;-75
2022/11/07 14:13:19;;;;;;;21.48;5.68;;;;;;;;;;5026620;28;20057;-74
2022/11/07 14:15:52;;;;;;;13.23;4.90;;;;;;;;;;5013099;28;20041;-75
2022/11/07 14:18:19;;;;;;;13.27;5.00;;;;;;;;;;5041154;28;20045;-74
2022/11/07 14:20:46;;;;;;;15.70;4.18;;;;;;;;;;5041641;28;20127;-75
2022/11/07 14:23:12;;;;;;;15.32;5.13;;;;;;;;;;5041497;28;20049;-75
2022/11/07 14:25:39;;;;;;;12.93;4.82;;;;;;;;;;4996745;28;20045;-76
2022/11/07 14:28:15;;;;;;;13.05;5.00;;;;;;;;;;5014709;28;20055;-76
2022/11/07 14:30:42;;;;;;;14.43;4.93;;;;;;;;;;5014732;28;20053;-75
2022/11/07 14:33:18;;;;;;;16.80;5.10;;;;;;;;;;5011963;28;20055;-75
2022/11/07 14:35:46;;;;;;;12.25;3.88;;;;;;;;;;5009008;28;20044;-75
2022/11/07 14:38:16;;;;;;;9.80;4.30;;;;;;;;;;4989228;28;20932;-75
2022/11/07 14:40:42;;;;;;;12.35;4.18;;;;;;;;;;5013204;28;20400;-74
2022/11/07 14:43:17;;;;;;;14.20;5.05;;;;;;;;;;4991689;28;20036;-74
2022/11/07 14:45:44;;;;;;;17.67;4.97;;;;;;;;;;5009555;28;20064;-73
2022/11/07 14:48:18;;;;;;;15.13;4.80;;;;;;;;;;5011990;28;20521;-75
2022/11/07 14:50:45;;;;;;;18.55;5.35;;;;;;;;;;4990851;28;20075;-76
2022/11/07 14:53:21;;;;;;;15.18;4.75;;;;;;;;;;4997281;28;20045;-76